Tiempo atmosférico en la estación meteorológica de Rivilla De Barajas, Ávila (925 m.)



Fecha
DESCASC
Temp. máxima en grados centígrados (hora)
DESCASC
Temp. mínima en grados centígrados (hora)
DESCASC
Temp. media en grados centígrados
DESCASC
Racha de viento máxima en m/sg (hora)
DESCASC
Velocidad máxima media en intervalos de 10 minutos(hora)
DESCASC
Precipitaciones diarias en mm
DESCASC
Precipitaciones de 00:00 a 06:00 en mm
DESCASC
Precipitaciones de 06:00 a 12:00 en mm
DESCASC
Precipitaciones de 12:00 a 18:00 en mm
DESCASC
Precipitaciones de 18:00 a 24:00 en mm
DESCASC
22-01-2020 7.2 (15:40) 0.2 (00:30) 3.7 11.39 (13:20) 8.06 (13:20) 0.2 0 0 0 0.2
21-01-2020 4 (16:30) -4.7 (03:20) -0.3 12.22 (16:40) 8.61 (16:30) 1 0 0.4 0.2 0.4
20-01-2020 1.8 (14:10) -3.1 (08:10) -0.6 12.5 (02:10) 8.33 (02:50) 0 0 0 0 0
19-01-2020 5.5 (15:10) -1.9 (-00:0) 1.8 17.22 (11:20) 13.06 (15:00) 0.2 0 0.2 0 0
18-01-2020 12.2 (14:00) 3.6 (00:00) 7.9 17.78 (15:50) 11.67 (14:30) 2.6 1 0.4 0 1.2
17-01-2020 9.1 (15:40) 3.8 (00:00) 6.5 11.67 (11:30) 9.17 (11:30) 0.6 0 0.6 0 0
16-01-2020 12.5 (13:20) 2.7 (00:00) 7.6 12.78 (21:40) 7.78 (21:40) 0 0 0 0 0
15-01-2020 10.7 (16:10) 5.3 (00:00) 8 13.06 (01:40) 7.5 (01:40) 1.2 0 0.4 0.8 0
14-01-2020 9 (15:30) -0.8 (-00:0) 4.1 10.28 (12:30) 6.94 (16:20) 0 0 0 0 0
13-01-2020 8.3 (15:50) -6.3 (-00:0) 1 8.89 (12:20) 5.83 (12:20) 0 0 0 0 0
12-01-2020 5.8 (17:10) -3.6 (-00:0) 1.1 4.44 (13:00) 3.33 (13:00) 0.2 0 0.2 0 0
11-01-2020 4.6 (16:20) -3.5 (-00:0) 0.5 3.61 (15:40) 2.5 (15:10) 0 0 0 0 0
10-01-2020 6.2 (16:10) -0.8 (-00:0) 2.7 8.06 (16:10) 5.56 (16:10) 0 0 0 0 0
09-01-2020 11.7 (16:30) 1.6 (00:00) 6.6 10.28 (17:50) 6.94 (18:00) 0 0 0 0 0
08-01-2020 9 (13:50) -4.9 (-00:0) 2 3.33 (14:10) 2.78 (14:10) 0 0 0 0 0
07-01-2020 6.8 (15:40) -5.3 (-00:0) 0.8 5 (01:50) 2.5 (13:20) 0 0 0 0 0
06-01-2020 12 (14:30) -5.5 (-00:0) 3.3 4.72 (16:10) 3.61 (16:10) 0.2 0 0.2 0 0
05-01-2020 1.6 (16:10) -4.5 (-00:0) -1.4 3.06 (20:10) 1.94 (00:40) 0 0 0 0 0
04-01-2020 4 (13:40) -0.2 (00:00) 1.9 6.39 (14:00) 4.44 (15:00) 0 0 0 0 0
03-01-2020 7.7 (15:20) 0.8 (00:00) 4.2 5 (00:10) 3.06 (03:10) 0 0 0 0 0
02-01-2020 12.9 (15:00) 3.2 (00:00) 8 7.22 (22:30) 5.28 (22:40) 0 0 0 0 0
01-01-2020 13.8 (14:40) 2.5 (00:00) 8.2 3.33 (20:20) 2.5 (20:20) 0 0 0 0 0
31-12-2019 11.6 (11:10) 2.6 (00:00) 7.1 3.89 (13:10) 2.78 (13:10) 0 0 0 0 0
30-12-2019 -- (--) -- (--) -- -- (--) -- (--) -- 0 0 -- 0
29-12-2019 11.9 (15:40) 1.2 (00:00) 6.5 2.5 (20:50) 2.22 (17:00) 0 0 0 0 0
28-12-2019 6.9 (21:40) -4.7 (-00:0) 1.1 5 (07:50) 2.78 (15:40) 0.2 0 0.2 0 0
27-12-2019 2.2 (17:10) -2.7 (-00:0) -0.3 3.06 (21:40) 2.5 (00:30) 0.2 0 0.2 0 0
26-12-2019 10.2 (16:10) 1.6 (00:00) 5.9 7.5 (00:30) 5 (00:10) 0 0 0 0 0
25-12-2019 15.4 (16:00) 3.4 (00:00) 9.4 6.67 (23:40) 5 (23:59) 0 0 0 0 0

Gráficas

Temp. máximas Temp. mínimas Temp. medias Precipitaciones Rachas de viento máximas Velocidades máximas media en intervalos de 10 minutos

Datos horarios

Fecha y hora oficial Temperatura (ºC) Velocidad del viento (km/h) Dirección del viento Racha (km/h) Dirección de racha Precipitación (mm) Presión (hPa) Tendencia (hPa) Humedad (%)
2020-01-23 23:00:00 4.4 10 Sudeste 19 Sudeste 0 -- -- 91
2020-01-23 22:00:00 5.2 11 Sudeste 20 Sudeste 0 -- -- 86
2020-01-23 21:00:00 5.6 10 Sudeste 21 Sur 0 -- -- 83
2020-01-23 20:00:00 5.1 11 Sudeste 27 Sudeste 0 -- -- 84
2020-01-23 19:00:00 5.7 15 Sudeste 26 Sudeste 0 -- -- 80
2020-01-23 18:00:00 6.3 16 Sudeste 30 Sur 0 -- -- 76
2020-01-23 17:00:00 6.9 17 Sur 35 Sur 0 -- -- 73
2020-01-23 16:00:00 7.2 21 Sur 44 Sur 0 -- -- 74
2020-01-23 15:00:00 7.7 20 Sudeste 39 Sur 0 -- -- 74
2020-01-23 14:00:00 8.3 17 Sur 32 Sudeste 0 -- -- 71
2020-01-23 13:00:00 6.5 25 Sudeste 39 Sudeste 0 -- -- 80
2020-01-23 12:00:00 5.5 19 Sudeste 41 Sudeste 0 -- -- 85
2020-01-23 11:00:00 4.4 21 Sudeste 39 Sudeste 0 -- -- 86
2020-01-23 10:00:00 3.7 26 Sudeste 37 Sudeste 0 -- -- 88
2020-01-23 09:00:00 3.3 18 Sudeste 28 Sur 0 -- -- 87
2020-01-23 08:00:00 2.8 15 Sudeste 32 Sudeste 0 -- -- 92
2020-01-23 07:00:00 2.7 14 Sudeste 29 Sudeste 0 -- -- 89
2020-01-23 06:00:00 4 15 Sudeste 27 Sudeste 0 -- -- 85
2020-01-23 05:00:00 3.9 17 Sudeste 26 Sudeste 0 -- -- 87
2020-01-23 04:00:00 4.2 15 Sudeste 27 Sudeste 0 -- -- 88
2020-01-23 03:00:00 3.5 16 Sudeste 23 Sudeste 0 -- -- 91
2020-01-23 02:00:00 3.2 13 Sudeste 19 Sudeste 0 -- -- 91
2020-01-23 01:00:00 2.9 9 Este 11 Este 0 -- -- 96
2020-01-23 00:00:00 3.4 9 Este 12 Este 0 -- -- 92
2020-01-22 23:00:00 4.1 5 Sur 10 Sur 0 -- -- 89
2020-01-22 22:00:00 3.9 7 Sudeste 12 Este 0.2 -- -- 91
2020-01-22 21:00:00 3.6 5 Sur 10 Nordeste 0 -- -- 88
2020-01-22 20:00:00 3.6 3 Sudeste 6 Sur 0 -- -- 87
2020-01-22 19:00:00 3.6 3 Sudeste 15 Sudeste 0 -- -- 85
2020-01-22 18:00:00 5.1 12 Sudeste 24 Sudeste 0 -- -- 81
2020-01-22 17:00:00 7 15 Sudeste 31 Sudeste 0 -- -- 73
2020-01-22 16:00:00 7 19 Sudeste 38 Sudeste 0 -- -- 74
2020-01-22 15:00:00 7.1 19 Sudeste 36 Sudeste 0 -- -- 79
2020-01-22 14:00:00 6.8 25 Sudeste 41 Sudeste 0 -- -- 80
2020-01-22 13:00:00 6.1 27 Sudeste 38 Sudeste 0 -- -- 83
2020-01-22 12:00:00 4.3 11 Este 17 Este 0 -- -- 93
2020-01-22 11:00:00 2.2 8 Nordeste 12 Este 0 -- -- 98
2020-01-22 10:00:00 1 4 Este 8 Nordeste 0 -- -- 99
2020-01-22 09:00:00 0.8 4 Nordeste 9 Nordeste 0 -- -- 98
2020-01-22 08:00:00 1.3 6 Nordeste 10 Nordeste 0 -- -- 98
2020-01-22 07:00:00 1.3 4 Nordeste 13 Este 0 -- -- 98
2020-01-22 06:00:00 1.7 6 Nordeste 13 Nordeste 0 -- -- 98
2020-01-22 05:00:00 1.7 10 Nordeste 13 Nordeste 0 -- -- 99
2020-01-22 04:00:00 1.4 7 Nordeste 14 Este 0 -- -- 99
2020-01-22 03:00:00 1.1 4 Norte 13 Este 0 -- -- 98
2020-01-22 02:00:00 1.3 13 Este 19 Este 0 -- -- 97
2020-01-22 01:00:00 1.2 14 Este 22 Nordeste 0 -- -- 97
2020-01-22 00:00:00 0.6 9 Nordeste 18 Nordeste 0 -- -- 97
2020-01-21 23:00:00 0.6 14 Nordeste 25 Nordeste 0 -- -- 97
2020-01-21 22:00:00 0.7 14 Este 28 Este 0 -- -- 96
2020-01-21 21:00:00 1 20 Nordeste 29 Nordeste 0 -- -- 95
2020-01-21 20:00:00 0.9 16 Nordeste 33 Este 0 -- -- 95
2020-01-21 19:00:00 1.9 26 Nordeste 40 Este 0.4 -- -- 96
2020-01-21 18:00:00 2.5 23 Nordeste 37 Nordeste 0 -- -- 91
2020-01-21 17:00:00 3.2 27 Nordeste 44 Nordeste 0 -- -- 87
2020-01-21 16:00:00 3.8 24 Nordeste 40 Nordeste 0 -- -- 83
2020-01-21 15:00:00 3.2 26 Este 37 Este 0 -- -- 85
2020-01-21 14:00:00 1.7 19 Este 30 Este 0 -- -- 91
2020-01-21 13:00:00 1.2 17 Nordeste 25 Este 0.2 -- -- 92
2020-01-21 12:00:00 0.2 13 Este 25 Nordeste 0.4 -- -- 92
2020-01-21 11:00:00 -1.3 9 Nordeste 15 Este 0 -- -- 94
2020-01-21 10:00:00 -3.2 3 Sudoeste 12 Nordeste 0 -- -- 95
2020-01-21 09:00:00 -3.3 6 Nordeste 16 Nordeste 0 -- -- 93
2020-01-21 08:00:00 -4.1 8 Este 15 Este 0 -- -- 94
2020-01-21 07:00:00 -3.1 6 Este 13 Este 0 -- -- 97
2020-01-21 06:00:00 -2.5 11 Este 14 Este 0 -- -- 96
2020-01-21 05:00:00 -3.2 4 Este 9 Este 0 -- -- 97
2020-01-21 04:00:00 -3.9 6 Sudeste 15 Este 0 -- -- 96
2020-01-21 03:00:00 -4.1 13 Este 20 Este 0 -- -- 96
2020-01-21 02:00:00 -4.3 10 Este 16 Este 0 -- -- 98
2020-01-21 01:00:00 -2.6 12 Este 23 Nordeste 0 -- -- 98
2020-01-21 00:00:00 -2.4 18 Nordeste 28 Nordeste 0 -- -- 98
2020-01-20 23:00:00 -2.2 15 Nordeste 24 Nordeste 0 -- -- 96
2020-01-20 22:00:00 -1.3 19 Este 32 Nordeste 0 -- -- 89
2020-01-20 21:00:00 -0.8 14 Este 22 Nordeste 0 -- -- 75
2020-01-20 20:00:00 -0.4 13 Nordeste 26 Nordeste 0 -- -- 73
2020-01-20 19:00:00 0.1 13 Nordeste 34 Nordeste 0 -- -- 72
2020-01-20 18:00:00 0.8 17 Nordeste 30 Nordeste 0 -- -- 67
2020-01-20 17:00:00 1.2 23 Nordeste 33 Este 0 -- -- 61
2020-01-20 16:00:00 1.2 21 Nordeste 34 Este 0 -- -- 62
2020-01-20 15:00:00 1.1 27 Este 37 Este 0 -- -- 59
2020-01-20 14:00:00 1.4 22 Nordeste 35 Nordeste 0 -- -- 64
2020-01-20 13:00:00 0.2 24 Nordeste 38 Nordeste 0 -- -- 66
2020-01-20 12:00:00 -0.5 24 Nordeste 40 Nordeste 0 -- -- 68
2020-01-20 11:00:00 -1.4 25 Nordeste 37 Nordeste 0 -- -- 73
2020-01-20 10:00:00 -2.4 19 Nordeste 26 Nordeste 0 -- -- 78
2020-01-20 09:00:00 -3.1 18 Nordeste 28 Nordeste 0 -- -- 79
2020-01-20 08:00:00 -3 17 Nordeste 32 Nordeste 0 -- -- 79
2020-01-20 07:00:00 -2.8 22 Nordeste 37 Nordeste 0 -- -- 78
2020-01-20 06:00:00 -2.5 23 Nordeste 39 Nordeste 0 -- -- 76
2020-01-20 05:00:00 -2.3 21 Nordeste 33 Nordeste 0 -- -- 76
2020-01-20 04:00:00 -2 23 Nordeste 37 Nordeste 0 -- -- 76
2020-01-20 03:00:00 -1.7 27 Nordeste 45 Nordeste 0 -- -- 74
2020-01-20 02:00:00 -1.4 24 Nordeste 40 Nordeste 0 -- -- 73
2020-01-20 01:00:00 -1 23 Nordeste 39 Nordeste 0 -- -- 73
2020-01-20 00:00:00 -1.4 17 Nordeste 29 Nordeste 0 -- -- 74
2020-01-19 23:00:00 -1.9 14 Nordeste 26 Nordeste 0 -- -- 79
2020-01-19 22:00:00 -1.4 13 Nordeste 35 Nordeste 0 -- -- 77
2020-01-19 21:00:00 -0.8 19 Nordeste 40 Nordeste 0 -- -- 73
2020-01-19 20:00:00 -0.1 30 Nordeste 50 Nordeste 0 -- -- 68
2020-01-19 19:00:00 1 38 Nordeste 59 Nordeste 0 -- -- 60
2020-01-19 18:00:00 2.6 42 Nordeste 59 Nordeste 0 -- -- 58
2020-01-19 17:00:00 4.2 35 Nordeste 60 Nordeste 0 -- -- 56
2020-01-19 16:00:00 5.1 41 Nordeste 55 Nordeste 0 -- -- 60
2020-01-19 15:00:00 5.3 47 Nordeste 61 Nordeste 0 -- -- 61
2020-01-19 14:00:00 5 45 Nordeste 61 Nordeste 0 -- -- 63
2020-01-19 13:00:00 4.5 33 Nordeste 58 Nordeste 0 -- -- 71
2020-01-19 12:00:00 4 45 Nordeste 62 Nordeste 0 -- -- 79
2020-01-19 11:00:00 3.3 30 Nordeste 54 Nordeste 0 -- -- 90
2020-01-19 10:00:00 2.6 26 Norte 42 Nordeste 0.2 -- -- 98
2020-01-19 09:00:00 1.7 18 Norte 25 Norte 0 -- -- 100
2020-01-19 08:00:00 1.3 13 Noroeste 17 Noroeste 0 -- -- 100
2020-01-19 07:00:00 1.2 6 Noroeste 20 Noroeste 0 -- -- 100
2020-01-19 06:00:00 1.8 13 Noroeste 21 Noroeste 0 -- -- 100
2020-01-19 05:00:00 2.1 12 Noroeste 20 Noroeste 0 -- -- 99
2020-01-19 04:00:00 3 11 Noroeste 23 Noroeste 0 -- -- 98
2020-01-19 03:00:00 3.5 17 Noroeste 23 Noroeste 0 -- -- 98
2020-01-19 02:00:00 3.1 14 Oeste 36 Noroeste 0 -- -- 96
2020-01-19 01:00:00 4 22 Oeste 35 Oeste 0 -- -- 95
2020-01-19 00:00:00 4.2 21 Oeste 34 Oeste 0.2 -- -- 93
2020-01-18 23:00:00 4.9 17 Oeste 30 Oeste 0 -- -- 95
2020-01-18 22:00:00 4.8 18 Oeste 45 Noroeste 0 -- -- 95
2020-01-18 21:00:00 6.4 33 Oeste 47 Oeste 0.2 -- -- 89
2020-01-18 20:00:00 6.9 38 Oeste 63 Oeste 0.8 -- -- 89
2020-01-18 19:00:00 8.4 31 Sudoeste 55 Sudoeste 0 -- -- 85
2020-01-18 18:00:00 9 37 Oeste 54 Sudoeste 0 -- -- 83
2020-01-18 17:00:00 10.6 34 Oeste 62 Sudoeste 0 -- -- 79
2020-01-18 16:00:00 11.4 41 Oeste 64 Oeste 0 -- -- 77
2020-01-18 15:00:00 11.5 37 Oeste 62 Oeste 0 -- -- 79
2020-01-18 14:00:00 12.2 28 Oeste 45 Sudoeste 0 -- -- 79
2020-01-18 13:00:00 10.2 18 Sudoeste 36 Sudoeste 0 -- -- 84
2020-01-18 12:00:00 9.3 12 Oeste 22 Sudoeste 0 -- -- 86
2020-01-18 11:00:00 6.9 6 Sur 12 Sudeste 0 -- -- 93
2020-01-18 10:00:00 4.7 5 Sur 10 Sur 0 -- -- 95
2020-01-18 09:00:00 4.1 6 Sudeste 10 Sudeste 0.2 -- -- 95
2020-01-18 08:00:00 4.2 5 Sudeste 10 Sudeste 0 -- -- 92
2020-01-18 07:00:00 4.6 7 Sur 18 Sudoeste 0.2 -- -- 91
2020-01-18 06:00:00 5 6 Sudoeste 16 Sur 1 -- -- 90
2020-01-18 05:00:00 5.3 8 Sur 23 Sur 0 -- -- 87
2020-01-18 04:00:00 4.4 6 Oeste 10 Oeste 0 -- -- 92
2020-01-18 03:00:00 3.9 2 Sur 10 Sudoeste 0 -- -- 88
2020-01-18 02:00:00 4.2 8 Sudoeste 14 Sudoeste 0 -- -- 85
2020-01-18 01:00:00 4.2 6 Sudoeste 12 Sudoeste 0 -- -- 85
2020-01-18 00:00:00 3.8 7 Oeste 13 Sudeste 0 -- -- 88
2020-01-17 23:00:00 4.4 6 Sur 9 Sur 0 -- -- 82
2020-01-17 22:00:00 4.6 5 Sur 8 Sur 0 -- -- 81
2020-01-17 21:00:00 4.7 5 Sudoeste 8 Sudoeste 0 -- -- 82
2020-01-17 20:00:00 4.6 0 Calma 6 Oeste 0 -- -- 82
2020-01-17 19:00:00 5.4 0 Calma 10 Noroeste 0 -- -- 76
2020-01-17 18:00:00 6.2 8 Noroeste 25 Oeste 0 -- -- 75
2020-01-17 17:00:00 8.2 19 Noroeste 26 Oeste 0 -- -- 66
2020-01-17 16:00:00 8.6 18 Noroeste 27 Oeste 0 -- -- 69
2020-01-17 15:00:00 8.7 19 Oeste 41 Oeste 0 -- -- 70
2020-01-17 14:00:00 8.7 25 Oeste 40 Oeste 0 -- -- 70
2020-01-17 13:00:00 8 28 Oeste 40 Oeste 0 -- -- 74
2020-01-17 12:00:00 7.2 28 Oeste 42 Oeste 0 -- -- 84
2020-01-17 11:00:00 6.4 25 Oeste 33 Oeste 0 -- -- 96
2020-01-17 10:00:00 5.7 21 Oeste 40 Oeste 0.4 -- -- 97
2020-01-17 09:00:00 5.7 23 Oeste 36 Oeste 0.2 -- -- 95
2020-01-17 08:00:00 5.8 20 Oeste 37 Oeste 0 -- -- 90
2020-01-17 07:00:00 5.8 21 Sudoeste 36 Oeste 0 -- -- 88
2020-01-17 06:00:00 5.5 17 Sudoeste 33 Sudoeste 0 -- -- 87
2020-01-17 05:00:00 4.8 18 Sudoeste 35 Sudoeste 0 -- -- 89
2020-01-17 04:00:00 5 19 Sudoeste 32 Oeste 0 -- -- 90
2020-01-17 03:00:00 5.3 18 Oeste 31 Oeste 0 -- -- 89
2020-01-17 02:00:00 4.6 11 Oeste 15 Oeste 0 -- -- 93
2020-01-17 01:00:00 5 9 Noroeste 30 Sudoeste 0 -- -- 83
2020-01-17 00:00:00 7.2 15 Sudoeste 31 Sudoeste 0 -- -- 77
2020-01-16 23:00:00 7.3 18 Sudoeste 44 Sudoeste 0 -- -- 73
2020-01-16 22:00:00 7.6 19 Sudoeste 46 Sudoeste 0 -- -- 72
2020-01-16 21:00:00 8.9 17 Sudoeste 32 Sudoeste 0 -- -- 54
2020-01-16 20:00:00 7.9 8 Sudoeste 31 Sudoeste 0 -- -- 55
2020-01-16 19:00:00 9 15 Sudoeste 32 Sudoeste 0 -- -- 47
2020-01-16 18:00:00 10.1 18 Sudoeste 34 Sudoeste 0 -- -- 41
2020-01-16 17:00:00 10.4 13 Sudoeste 26 Sudoeste 0 -- -- 46
2020-01-16 16:00:00 10 15 Oeste 43 Sudoeste 0 -- -- 67
2020-01-16 15:00:00 12 24 Sudoeste 38 Oeste 0 -- -- 43
2020-01-16 14:00:00 11.7 18 Oeste 35 Sudoeste 0 -- -- 61
2020-01-16 13:00:00 12.2 20 Sudoeste 34 Sudoeste 0 -- -- 49
2020-01-16 12:00:00 11.1 11 Sudoeste 22 Sudoeste 0 -- -- 69
2020-01-16 11:00:00 9.2 13 Sudoeste 21 Sudoeste 0 -- -- 80
2020-01-16 10:00:00 5 3 Sudeste 9 Sur 0 -- -- 92
2020-01-16 09:00:00 5 6 Sur 11 Sur 0 -- -- 92
2020-01-16 08:00:00 2.7 0 Calma 13 Sudeste 0 -- -- 94
2020-01-16 07:00:00 5 6 Sur 13 Sudeste 0 -- -- 86
2020-01-16 06:00:00 4.2 0 Calma 9 Sur 0 -- -- 93
2020-01-16 05:00:00 4.9 4 Sur 15 Sur 0 -- -- 86
2020-01-16 04:00:00 5.6 8 Sur 14 Sur 0 -- -- 89
2020-01-16 03:00:00 5.1 7 Sudoeste 17 Sur 0 -- -- 85
2020-01-16 02:00:00 7.2 10 Sur 26 Sur 0 -- -- 82
2020-01-16 01:00:00 7.6 10 Sudoeste 18 Sur 0 -- -- 80
2020-01-16 00:00:00 6.8 8 Sur 18 Sur 0 -- -- 82
2020-01-15 23:00:00 7.2 10 Sudoeste 18 Sudoeste 0 -- -- 84
2020-01-15 22:00:00 6.4 5 Sudoeste 12 Sur 0 -- -- 87
2020-01-15 21:00:00 7.8 8 Sudoeste 21 Sudoeste 0 -- -- 85
2020-01-15 20:00:00 8.6 9 Sudoeste 17 Sudoeste 0 -- -- 83
2020-01-15 19:00:00 8.4 7 Sudoeste 26 Sudoeste 0 -- -- 85
2020-01-15 18:00:00 9.3 13 Sudoeste 30 Oeste 0 -- -- 82
2020-01-15 17:00:00 10.3 16 Oeste 35 Sudoeste 0 -- -- 80
2020-01-15 16:00:00 10.6 18 Sudoeste 36 Sudoeste 0 -- -- 81
2020-01-15 15:00:00 9.8 15 Oeste 25 Oeste 0 -- -- 90
2020-01-15 14:00:00 6.9 0 Calma 12 Noroeste 0 -- -- 96
2020-01-15 13:00:00 5.3 9 Noroeste 29 Sudoeste 0.8 -- -- 96
2020-01-15 12:00:00 8.2 20 Sudoeste 36 Sudoeste 0.4 -- -- 83
2020-01-15 11:00:00 8.2 14 Sudoeste 28 Sudoeste 0 -- -- 76
2020-01-15 10:00:00 7.3 14 Sudoeste 26 Sudoeste 0 -- -- 76
2020-01-15 09:00:00 7.1 3 Sudoeste 15 Oeste 0 -- -- 76
2020-01-15 08:00:00 7.4 12 Sudoeste 26 Sudoeste 0 -- -- 73
2020-01-15 07:00:00 7.5 14 Sudoeste 28 Sudoeste 0 -- -- 64
2020-01-15 06:00:00 5.7 6 Sur 18 Sur 0 -- -- 70
2020-01-15 05:00:00 6.3 9 Sudoeste 21 Sudoeste 0 -- -- 69
2020-01-15 04:00:00 6.4 8 Sudoeste 29 Sudoeste 0 -- -- 69
2020-01-15 03:00:00 6.7 14 Sudoeste 46 Sur 0 -- -- 71
2020-01-15 02:00:00 6.5 22 Sudoeste 47 Sudoeste 0 -- -- 79
2020-01-15 01:00:00 6.1 15 Sudoeste 31 Sudoeste 0 -- -- 82
2020-01-15 00:00:00 5.5 15 Sudoeste 26 Sur 0 -- -- 83
2020-01-14 23:00:00 4 3 Sur 17 Sur 0 -- -- 87
2020-01-14 22:00:00 3.5 8 Sur 18 Sur 0 -- -- 89
2020-01-14 21:00:00 3.8 9 Sur 15 Sur 0 -- -- 87
2020-01-14 20:00:00 4.4 8 Sudoeste 12 Oeste 0 -- -- 89
2020-01-14 19:00:00 4.9 8 Sudoeste 20 Oeste 0 -- -- 85
2020-01-14 18:00:00 7.4 9 Sur 29 Sudoeste 0 -- -- 72
2020-01-14 17:00:00 7.9 20 Sudoeste 37 Sudoeste 0 -- -- 74
2020-01-14 16:00:00 8.7 20 Oeste 33 Oeste 0 -- -- 72
2020-01-14 15:00:00 8.4 23 Oeste 32 Oeste 0 -- -- 70
2020-01-14 14:00:00 7.6 21 Oeste 35 Oeste 0 -- -- 74
2020-01-14 13:00:00 7.3 22 Oeste 37 Sudoeste 0 -- -- 74
2020-01-14 12:00:00 6.5 18 Sudoeste 30 Sudoeste 0 -- -- 75
2020-01-14 11:00:00 5 9 Sudoeste 19 Sudoeste 0 -- -- 80
2020-01-14 10:00:00 2.6 11 Sudoeste 21 Sur 0 -- -- 84
2020-01-14 09:00:00 0 12 Sur 19 Sur 0 -- -- 92
2020-01-14 08:00:00 -0.1 10 Sudoeste 21 Sudoeste 0 -- -- 93
2020-01-14 07:00:00 -0.7 4 Sudoeste 12 Sudoeste 0 -- -- 92
2020-01-14 06:00:00 -0.4 7 Sudoeste 15 Sudoeste 0 -- -- 91
2020-01-14 05:00:00 0.2 9 Oeste 15 Oeste 0 -- -- 92
2020-01-14 04:00:00 -0.4 9 Oeste 14 Oeste 0 -- -- 85
2020-01-14 03:00:00 -0.2 4 Sudoeste 19 Sudoeste 0 -- -- 83
2020-01-14 02:00:00 0.5 8 Sur 18 Sudoeste 0 -- -- 92
2020-01-14 01:00:00 0.6 11 Sudoeste 17 Oeste 0 -- -- 92
2020-01-14 00:00:00 0.9 10 Sudoeste 25 Oeste 0 -- -- 90
2020-01-13 23:00:00 1.1 15 Sudoeste 31 Sudoeste 0 -- -- 88
2020-01-13 22:00:00 1.2 16 Oeste 26 Oeste 0 -- -- 87
2020-01-13 21:00:00 1.8 6 Sudoeste 24 Oeste 0 -- -- 76
2020-01-13 20:00:00 3.8 15 Oeste 23 Sudoeste 0 -- -- 63
2020-01-13 19:00:00 4.1 6 Sudoeste 9 Sudoeste 0 -- -- 71
2020-01-13 18:00:00 7 5 Sur 12 Sur 0 -- -- 63
2020-01-13 17:00:00 7.9 6 Sudoeste 18 Oeste 0 -- -- 58
2020-01-13 16:00:00 8.3 11 Oeste 19 Oeste 0 -- -- 58
2020-01-13 15:00:00 7.5 12 Sudoeste 31 Oeste 0 -- -- 57
2020-01-13 14:00:00 7 13 Sudoeste 24 Oeste 0 -- -- 64
2020-01-13 13:00:00 6.1 18 Oeste 32 Oeste 0 -- -- 69
2020-01-13 12:00:00 5 14 Oeste 28 Oeste 0 -- -- 72
2020-01-13 11:00:00 2.5 12 Sudoeste 23 Sudoeste 0 -- -- 81
2020-01-13 10:00:00 1.2 19 Sudoeste 27 Oeste 0 -- -- 83
2020-01-13 09:00:00 -0.5 6 Oeste 13 Sudoeste 0 -- -- 86
2020-01-13 08:00:00 -2.6 2 Sudoeste 4 Sudoeste 0 -- -- 96
2020-01-13 07:00:00 -3.7 0 Calma 9 Sur 0 -- -- 98
2020-01-13 06:00:00 -5.8 5 Sur 6 Sur 0 -- -- 99
2020-01-13 05:00:00 -6.1 2 Este 4 Sur 0 -- -- 97
2020-01-13 04:00:00 -6.3 0 Calma 2 Sur 0 -- -- 97
2020-01-13 03:00:00 -5.7 0 Calma 4 Nordeste 0 -- -- 96
2020-01-13 02:00:00 -4 0 Calma 4 Norte 0 -- -- 94
2020-01-13 01:00:00 -2.8 2 Noroeste 6 Noroeste 0 -- -- 93
2020-01-13 00:00:00 -0.2 0 Calma 9 Sur 0 -- -- 82
2020-01-12 23:00:00 0.4 5 Sur 10 Sur 0 -- -- 92
2020-01-12 22:00:00 -1.8 5 Sur 9 Sur 0 -- -- 98
2020-01-12 21:00:00 -3 5 Sur 7 Sur 0 -- -- 98
2020-01-12 20:00:00 -2.6 0 Calma 2 Norte 0 -- -- 95
2020-01-12 19:00:00 -0.8 2 Norte 11 Norte 0 -- -- 93
2020-01-12 18:00:00 3.3 9 Norte 12 Norte 0 -- -- 82
2020-01-12 17:00:00 5.7 5 Este 10 Sudeste 0 -- -- 77
2020-01-12 16:00:00 4.3 5 Este 13 Nordeste 0 -- -- 82
2020-01-12 15:00:00 3.6 8 Nordeste 12 Nordeste 0 -- -- 83
2020-01-12 14:00:00 0.8 4 Este 15 Norte 0 -- -- 91
2020-01-12 13:00:00 2.5 12 Norte 16 Norte 0 -- -- 84
2020-01-12 12:00:00 4.1 5 Nordeste 8 Nordeste 0 -- -- 77
2020-01-12 11:00:00 3.4 4 Nordeste 5 Nordeste 0.2 -- -- 75
2020-01-12 10:00:00 1.7 3 Sur 10 Sur 0 -- -- 69
2020-01-12 09:00:00 -1 8 Sur 10 Sur 0 -- -- 69
2020-01-12 08:00:00 -1.4 3 Sudeste 3 Sudeste 0 -- -- 74
2020-01-12 07:00:00 -3.4 0 Calma 9 Sudoeste 0 -- -- 87
2020-01-12 06:00:00 -1 6 Sudoeste 11 Sudoeste 0 -- -- 77
2020-01-12 05:00:00 -0.6 7 Sudoeste 10 Sudoeste 0 -- -- 85
2020-01-12 04:00:00 -1.7 3 Sudoeste 9 Sudoeste 0 -- -- 94
2020-01-12 03:00:00 -1.6 7 Sudoeste 10 Sudoeste 0 -- -- 96
2020-01-12 02:00:00 -1.6 8 Sudoeste 10 Sudoeste 0 -- -- 99
2020-01-12 01:00:00 -0.9 8 Oeste 9 Sudoeste 0 -- -- 100
2020-01-12 00:00:00 -2.2 0 Calma -- -- 0 -- -- 100
2020-01-11 23:00:00 -3.3 0 Calma 3 Sudeste 0 -- -- 100
2020-01-11 22:00:00 -2.4 3 Sudeste 5 Sudeste 0 -- -- 99
2020-01-11 21:00:00 -2.4 2 Sur 9 Sur 0 -- -- 99
2020-01-11 20:00:00 -1.4 0 Calma 6 Nordeste 0 -- -- 98
2020-01-11 19:00:00 -0.6 6 Nordeste 8 Nordeste 0 -- -- 96
2020-01-11 18:00:00 1.8 6 Nordeste 10 Nordeste 0 -- -- 91
2020-01-11 17:00:00 4.3 8 Nordeste 12 Nordeste 0 -- -- 85
2020-01-11 16:00:00 4.3 8 Nordeste 13 Nordeste 0 -- -- 86
2020-01-11 15:00:00 4.5 8 Nordeste 13 Nordeste 0 -- -- 87
2020-01-11 14:00:00 3 4 Nordeste 8 Este 0 -- -- 100
2020-01-11 13:00:00 1.1 6 Este 9 Este 0 -- -- 100
2020-01-11 12:00:00 -0.7 4 Este 6 Este 0 -- -- 100
2020-01-11 11:00:00 -1.8 0 Calma -- -- 0 -- -- 100
2020-01-11 10:00:00 -1.5 0 Calma -- -- 0 -- -- 100
2020-01-11 09:00:00 -0.8 0 Calma 10 Sudeste 0 -- -- 100
2020-01-11 08:00:00 -0.8 7 Este 11 Este 0 -- -- 100
2020-01-11 07:00:00 -0.5 5 Sudeste 11 Sudeste 0 -- -- 99
2020-01-11 06:00:00 0 6 Este 10 Sudeste 0 -- -- 99
2020-01-11 05:00:00 -0.3 7 Este 12 Este 0 -- -- 98
2020-01-11 04:00:00 -0.6 0 Calma 2 Oeste 0 -- -- 98
2020-01-11 03:00:00 -0.9 2 Sudoeste 5 Sur 0 -- -- 96
2020-01-11 02:00:00 0.3 3 Sudeste 5 Sur 0 -- -- 95
2020-01-11 01:00:00 -0.6 3 Sur 5 Sur 0 -- -- 92
2020-01-11 00:00:00 0.3 0 Calma 10 Sur 0 -- -- 92
2020-01-10 23:00:00 0.9 8 Sudeste 13 Sudeste 0 -- -- 91
2020-01-10 22:00:00 1.3 12 Este 13 Este 0 -- -- 89
2020-01-10 21:00:00 3.1 5 Este 6 Este 0 -- -- 88
2020-01-10 20:00:00 3.7 3 Nordeste 10 Nordeste 0 -- -- 87
2020-01-10 19:00:00 4.2 4 Nordeste 10 Nordeste 0 -- -- 81
2020-01-10 18:00:00 4.9 7 Nordeste 13 Nordeste 0 -- -- 79
2020-01-10 17:00:00 5.4 10 Este 29 Este 0 -- -- 73
2020-01-10 16:00:00 6.1 17 Este 27 Este 0 -- -- 71
2020-01-10 15:00:00 5.1 12 Este 20 Este 0 -- -- 78
2020-01-10 14:00:00 4.5 7 Este 16 Este 0 -- -- 80
2020-01-10 13:00:00 3.9 4 Norte 10 Nordeste 0 -- -- 82
2020-01-10 12:00:00 3.3 4 Norte 10 Norte 0 -- -- 84
2020-01-10 11:00:00 3 4 Este 6 Este 0 -- -- 84
2020-01-10 10:00:00 0.9 4 Oeste 5 Noroeste 0 -- -- 91
2020-01-10 09:00:00 0.6 3 Noroeste 7 Noroeste 0 -- -- 92
2020-01-10 08:00:00 -0.4 7 Noroeste 12 Oeste 0 -- -- 97
2020-01-10 07:00:00 -0.8 8 Oeste 14 Sudoeste 0 -- -- 98
2020-01-10 06:00:00 -0.1 9 Oeste 12 Oeste 0 -- -- 98
2020-01-10 05:00:00 0.6 9 Sudoeste 13 Sudoeste 0 -- -- 98
2020-01-10 04:00:00 1.3 8 Oeste 13 Oeste 0 -- -- 98
2020-01-10 03:00:00 1.8 10 Oeste 16 Oeste 0 -- -- 99
2020-01-10 02:00:00 2.9 10 Oeste 18 Oeste 0 -- -- 99
2020-01-10 01:00:00 3.2 12 Oeste 22 Oeste 0 -- -- 97
2020-01-10 00:00:00 3.8 17 Oeste 25 Oeste 0 -- -- 95
2020-01-09 23:00:00 5.3 17 Oeste 26 Oeste 0 -- -- 91
2020-01-09 22:00:00 6.2 15 Oeste 25 Oeste 0 -- -- 89
2020-01-09 21:00:00 7.6 21 Noroeste 35 Noroeste 0 -- -- 88
2020-01-09 20:00:00 9 14 Oeste 25 Oeste 0 -- -- 88
2020-01-09 19:00:00 9 14 Oeste 30 Oeste 0 -- -- 88
2020-01-09 18:00:00 10 25 Oeste 37 Noroeste 0 -- -- 86
2020-01-09 17:00:00 11.3 21 Oeste 30 Oeste 0 -- -- 80
2020-01-09 16:00:00 11.6 15 Sudoeste 24 Oeste 0 -- -- 79
2020-01-09 15:00:00 11.4 21 Oeste 31 Oeste 0 -- -- 80
2020-01-09 14:00:00 11.3 18 Oeste 31 Oeste 0 -- -- 80
2020-01-09 13:00:00 10.3 20 Oeste 29 Oeste 0 -- -- 82
2020-01-09 12:00:00 9.6 15 Sudoeste 27 Sudoeste 0 -- -- 77
2020-01-09 11:00:00 6.8 11 Sudoeste 22 Sudoeste 0 -- -- 65
2020-01-09 10:00:00 4.2 15 Sudoeste 23 Sudoeste 0 -- -- 73
2020-01-09 09:00:00 2 11 Oeste 18 Oeste 0 -- -- 87
2020-01-09 08:00:00 3.5 10 Oeste 15 Sudoeste 0 -- -- 78
2020-01-09 07:00:00 3.5 7 Sudoeste 14 Sudoeste 0 -- -- 75
2020-01-09 06:00:00 2.4 9 Sudoeste 13 Sudoeste 0 -- -- 84
2020-01-09 05:00:00 2.3 3 Noroeste 6 Oeste 0 -- -- 89
2020-01-09 04:00:00 2.3 3 Sudoeste 5 Sudoeste 0 -- -- 89
2020-01-09 03:00:00 2.8 4 Sudoeste 10 Sudoeste 0 -- -- 87
2020-01-09 02:00:00 2.7 6 Sudoeste 11 Sudoeste 0 -- -- 91
2020-01-09 01:00:00 3 8 Oeste 14 Sudoeste 0 -- -- 87
2020-01-09 00:00:00 3 9 Sudoeste 12 Sudoeste 0 -- -- 87
2020-01-08 23:00:00 3.4 4 Sudoeste 5 Sur 0 -- -- 87
2020-01-08 22:00:00 3.8 3 Sudeste 6 Sudeste 0 -- -- 92
2020-01-08 21:00:00 4 4 Sudeste 5 Sudeste 0 -- -- 89
2020-01-08 20:00:00 4.5 4 Sudeste 8 Sudeste 0 -- -- 85
2020-01-08 19:00:00 4.9 4 Sudeste 5 Nordeste 0 -- -- 86
2020-01-08 18:00:00 5.9 5 Nordeste 8 Nordeste 0 -- -- 81
2020-01-08 17:00:00 7.7 6 Nordeste 12 Nordeste 0 -- -- 74
2020-01-08 16:00:00 8.6 9 Nordeste 12 Nordeste 0 -- -- 70
2020-01-08 15:00:00 8.2 7 Nordeste 12 Norte 0 -- -- 71
2020-01-08 14:00:00 9 9 Nordeste 12 Nordeste 0 -- -- 59
2020-01-08 13:00:00 7.6 8 Este 10 Este 0 -- -- 58
2020-01-08 12:00:00 4.4 5 Este 8 Sudeste 0 -- -- 81
2020-01-08 11:00:00 0.1 6 Sudeste 8 Sudeste 0 -- -- 95
2020-01-08 10:00:00 -4.7 0 Calma 5 Nordeste 0 -- -- 97
2020-01-08 09:00:00 -4.7 0 Calma 2 Nordeste 0 -- -- 95
2020-01-08 08:00:00 -4 0 Calma 5 Nordeste 0 -- -- 95
2020-01-08 07:00:00 -3.7 0 Calma 5 Nordeste 0 -- -- 93
2020-01-08 06:00:00 -1.6 5 Nordeste 9 Norte 0 -- -- 83
2020-01-08 05:00:00 1 0 Calma 5 Sur 0 -- -- 76
2020-01-08 04:00:00 0.3 5 Sur 7 Sur 0 -- -- 100
2020-01-08 03:00:00 -0.6 0 Calma 3 Sudeste 0 -- -- 97
2020-01-08 02:00:00 0.5 0 Calma 7 Sudoeste 0 -- -- 100
2020-01-08 01:00:00 0.7 6 Sudoeste 7 Sudoeste 0 -- -- 100
2020-01-08 00:00:00 -1.5 0 Calma 4 Oeste 0 -- -- 98
2020-01-07 23:00:00 -1.4 3 Oeste 6 Oeste 0 -- -- 98
2020-01-07 22:00:00 -3.4 3 Oeste 4 Oeste 0 -- -- 99
2020-01-07 21:00:00 -3 0 Calma 5 Este 0 -- -- 97
2020-01-07 20:00:00 -2 2 Nordeste 8 Norte 0 -- -- 95
2020-01-07 19:00:00 1.8 0 Calma 5 Nordeste 0 -- -- 91
2020-01-07 18:00:00 3.5 6 Nordeste 8 Nordeste 0 -- -- 87
2020-01-07 17:00:00 6 0 Calma 9 Nordeste 0 -- -- 84
2020-01-07 16:00:00 6.7 8 Nordeste 9 Nordeste 0 -- -- 81
2020-01-07 15:00:00 6 5 Nordeste 9 Nordeste 0 -- -- 83
2020-01-07 14:00:00 5.9 4 Nordeste 14 Norte 0 -- -- 80
2020-01-07 13:00:00 4.2 0 Calma 5 Sudeste 0 -- -- 100
2020-01-07 12:00:00 0.4 2 Sudeste 5 Sudeste 0 -- -- 100
2020-01-07 11:00:00 -3.8 3 Sudeste 5 Sudeste 0 -- -- 99
2020-01-07 10:00:00 -4.6 2 Este 5 Nordeste 0 -- -- 99
2020-01-07 09:00:00 -5.3 2 Norte 6 Norte 0 -- -- 99
2020-01-07 08:00:00 -5 5 Norte 8 Norte 0 -- -- 98
2020-01-07 07:00:00 -4.8 0 Calma 6 Sur 0 -- -- 98
2020-01-07 06:00:00 -3.8 3 Nordeste 4 Nordeste 0 -- -- 98
2020-01-07 05:00:00 -4.8 0 Calma 3 Norte 0 -- -- 98
2020-01-07 04:00:00 -4.9 0 Calma 5 Nordeste 0 -- -- 97
2020-01-07 03:00:00 -4.4 0 Calma 7 Norte 0 -- -- 95
2020-01-07 02:00:00 -1 3 Norte 18 Norte 0 -- -- 82
2020-01-07 01:00:00 0.3 2 Sudeste 6 Este 0 -- -- 78
2020-01-07 00:00:00 -0.1 0 Calma 5 Sur 0 -- -- 94
2020-01-06 23:00:00 -2.7 2 Sudoeste 6 Sur 0 -- -- 99
2020-01-06 22:00:00 -2.6 0 Calma 4 Nordeste 0 -- -- 97
2020-01-06 21:00:00 -1.2 3 Nordeste 7 Norte 0 -- -- 95
2020-01-06 20:00:00 1.4 3 Sudoeste 8 Sur 0 -- -- 96
2020-01-06 19:00:00 2.4 0 Calma 4 Sur 0 -- -- 93
2020-01-06 18:00:00 4 2 Norte 8 Norte 0 -- -- 90
2020-01-06 17:00:00 6.2 4 Nordeste 17 Nordeste 0 -- -- 85
2020-01-06 16:00:00 9.6 10 Norte 15 Norte 0 -- -- 75
2020-01-06 15:00:00 11.1 9 Norte 12 Oeste 0 -- -- 53
2020-01-06 14:00:00 11.4 7 Oeste 15 Sudoeste 0 -- -- 45
2020-01-06 13:00:00 6.8 3 Sudoeste 8 Sudoeste 0 -- -- 77
2020-01-06 12:00:00 2 4 Noroeste 13 Noroeste 0 -- -- 100
2020-01-06 11:00:00 1 4 Norte 7 Norte 0.2 -- -- 100
2020-01-06 10:00:00 -2.5 0 Calma 0 Calma 0 -- -- 100